Time;durP1;ratioP1;P1;durP2;ratioP2;P2;SDS_P1;SDS_P2;PMS_P1;PMS_P2;Temp;Humidity;BMP_temperature;BMP_pressure;BME280_temperature;BME280_humidity;BME280_pressure;Samples;Min_cycle;Max_cycle;Signal;HPM_P1;HPM_P2
2022/06/16 00:00:22;;;;;;;4.55;2.30;;;20.00;79.60;;;;;;4934588;29;20028;-67
2022/06/16 00:02:50;;;;;;;5.68;2.20;;;20.00;79.20;;;;;;4934453;29;20040;-67
2022/06/16 00:05:21;;;;;;;5.38;2.35;;;20.00;79.40;;;;;;4934499;29;20027;-67
2022/06/16 00:07:47;;;;;;;7.82;2.40;;;19.90;79.60;;;;;;4934267;29;20119;-67
2022/06/16 00:10:14;;;;;;;6.72;2.20;;;19.90;79.90;;;;;;4934527;29;20036;-67
2022/06/16 00:12:40;;;;;;;6.47;2.63;;;19.90;79.60;;;;;;4934645;29;20069;-67
2022/06/16 00:15:09;;;;;;;6.28;2.47;;;19.90;79.20;;;;;;4949524;29;20031;-67
2022/06/16 00:17:35;;;;;;;4.25;2.20;;;19.80;79.40;;;;;;4934279;29;20114;-67
2022/06/16 00:20:04;;;;;;;4.82;2.92;;;19.80;79.50;;;;;;4934077;29;20039;-67
2022/06/16 00:22:32;;;;;;;6.53;2.70;;;19.80;78.70;;;;;;4934425;29;20081;-67
2022/06/16 00:24:58;;;;;;;7.45;2.72;;;19.70;79.00;;;;;;4934809;29;20430;-67
2022/06/16 00:27:24;;;;;;;6.07;2.90;;;19.70;79.00;;;;;;4936158;29;20031;-67
2022/06/16 00:29:50;;;;;;;6.25;3.00;;;19.70;78.90;;;;;;4965722;28;20401;-67
2022/06/16 00:32:16;;;;;;;6.05;2.55;;;19.70;78.80;;;;;;4936435;29;20035;-67
2022/06/16 00:34:41;;;;;;;5.25;2.40;;;19.60;79.10;;;;;;4951255;28;20054;-67
2022/06/16 00:37:07;;;;;;;7.53;2.50;;;19.60;79.30;;;;;;4935965;29;20036;-67
2022/06/16 00:39:33;;;;;;;7.80;3.08;;;19.50;79.20;;;;;;4933159;29;20094;-67
2022/06/16 00:42:21;;;;;;;7.47;2.50;;;19.50;79.50;;;;;;4932722;29;20087;-67
2022/06/16 00:44:51;;;;;;;5.28;2.40;;;19.50;79.00;;;;;;4932267;29;20133;-67
2022/06/16 00:47:22;;;;;;;4.65;2.60;;;19.50;78.80;;;;;;4933761;28;20491;-67
2022/06/16 00:49:51;;;;;;;6.25;2.63;;;19.50;78.90;;;;;;4932366;29;20043;-67
2022/06/16 00:52:21;;;;;;;;;;;19.40;78.80;;;;;;5016169;23;20057;-87
2022/06/16 00:55:09;;;;;;;7.50;2.47;;;19.40;78.70;;;;;;4993743;28;19909;-87
2022/06/16 00:57:55;;;;;;;;;;;;;;;;;;;;;
2022/06/16 01:01:13;;;;;;;;;;;;;;;;;;;;;
2022/06/16 01:06:48;;;;;;;4.20;2.20;;;19.30;78.90;;;;;;4991619;28;20165;-88
2022/06/16 01:09:38;;;;;;;;;;;;;;;;;;;;;
2022/06/16 01:15:29;;;;;;;5.63;3.10;;;19.30;78.40;;;;;;4990480;28;20403;-88
2022/06/16 01:18:08;;;;;;;8.00;2.70;;;19.20;78.60;;;;;;4974132;28;20049;-88
2022/06/16 01:21:26;;;;;;;8.10;2.30;;;19.20;78.50;;;;;;4989822;28;20054;-89
2022/06/16 01:24:04;;;;;;;4.90;2.33;;;19.20;78.30;;;;;;4899512;29;20028;-87
2022/06/16 01:26:52;;;;;;;6.13;2.78;;;19.20;78.30;;;;;;4981660;28;20047;-87
2022/06/16 01:29:40;;;;;;;6.90;2.83;;;19.20;78.20;;;;;;4991314;28;20030;-87
2022/06/16 01:32:44;;;;;;;5.75;2.30;;;19.10;78.20;;;;;;4973826;28;20041;-87
2022/06/16 01:35:26;;;;;;;7.25;2.40;;;19.10;78.10;;;;;;4974111;28;20039;-87
2022/06/16 01:41:55;;;;;;;6.60;2.33;;;19.10;77.90;;;;;;4914972;29;20028;-86
2022/06/16 01:44:36;;;;;;;;;;;19.10;77.90;;;;;;4916448;29;20122;-87
2022/06/16 01:47:25;;;;;;;5.97;2.70;;;19.10;77.70;;;;;;4987293;28;19910;-87
2022/06/16 01:50:14;;;;;;;6.38;2.45;;;19.10;77.50;;;;;;4991055;28;20026;-87
2022/06/16 01:52:57;;;;;;;4.82;2.30;;;19.00;77.70;;;;;;4973930;28;20034;-88
2022/06/16 01:55:35;;;;;;;8.13;2.72;;;19.00;77.50;;;;;;4991632;28;20030;-88
2022/06/16 01:58:19;;;;;;;5.95;2.40;;;19.00;77.70;;;;;;4993522;28;20026;-87
2022/06/16 02:00:56;;;;;;;6.57;2.55;;;19.00;77.50;;;;;;4993155;28;20487;-87
2022/06/16 02:03:54;;;;;;;8.02;2.75;;;19.00;78.10;;;;;;4994891;28;20026;-88
2022/06/16 02:06:33;;;;;;;4.95;2.25;;;18.90;77.30;;;;;;4993451;28;20050;-87
2022/06/16 02:09:22;;;;;;;7.63;3.80;;;19.00;77.20;;;;;;4993365;28;20125;-87
2022/06/16 02:11:49;;;;;;;5.95;2.60;;;19.00;77.40;;;;;;4977419;28;20057;-87
2022/06/16 02:14:44;;;;;;;;;;;;;;;;;;;;;
2022/06/16 02:17:24;;;;;;;5.97;2.20;;;19.00;76.90;;;;;;4993332;28;20034;-87
2022/06/16 02:19:54;;;;;;;3.95;1.90;;;18.90;77.00;;;;;;4992999;28;20376;-87
2022/06/16 02:22:22;;;;;;;;;;;18.90;76.90;;;;;;4977707;28;20041;-87
2022/06/16 02:24:50;;;;;;;9.55;3.30;;;18.90;77.00;;;;;;4993107;28;19910;-87
2022/06/16 02:27:28;;;;;;;7.63;2.70;;;18.90;77.00;;;;;;4993074;28;20026;-87
2022/06/16 02:30:05;;;;;;;7.00;2.83;;;18.90;77.00;;;;;;4993064;28;20036;-87
2022/06/16 02:32:45;;;;;;;6.80;2.15;;;18.80;76.90;;;;;;4993348;28;20550;-87
2022/06/16 02:35:48;;;;;;;6.38;2.20;;;18.80;76.90;;;;;;4993130;28;20030;-88
2022/06/16 02:39:32;;;;;;;;;;;;;;;;;;;;;
2022/06/16 02:42:53;;;;;;;4.43;2.35;;;18.80;77.30;;;;;;4973737;28;20093;-87
2022/06/16 02:45:37;;;;;;;7.43;2.75;;;18.80;77.40;;;;;;4933950;29;20027;-88
2022/06/16 02:48:21;;;;;;;4.65;2.25;;;18.80;77.30;;;;;;4990826;28;20037;-87
2022/06/16 02:51:19;;;;;;;3.88;1.98;;;18.80;77.50;;;;;;4993399;28;20033;-87
2022/06/16 02:54:20;;;;;;;5.07;2.55;;;18.70;77.40;;;;;;4993319;28;20034;-87
2022/06/16 02:56:49;;;;;;;6.70;2.50;;;18.70;77.20;;;;;;4993533;28;20498;-88
2022/06/16 02:59:36;;;;;;;6.45;2.15;;;18.60;77.50;;;;;;4997157;28;20060;-87
2022/06/16 03:02:15;;;;;;;4.53;2.28;;;18.60;77.80;;;;;;4956797;28;20038;-86
2022/06/16 03:05:05;;;;;;;5.18;1.90;;;18.60;77.90;;;;;;4992975;28;20034;-87
2022/06/16 03:07:35;;;;;;;4.10;2.00;;;18.50;77.90;;;;;;4976144;28;20038;-87
2022/06/16 03:13:30;;;;;;;4.35;2.15;;;18.50;77.90;;;;;;4993729;28;20340;-87
2022/06/16 03:16:01;;;;;;;6.45;2.45;;;18.40;78.10;;;;;;4992356;28;20546;-87
2022/06/16 03:18:32;;;;;;;6.15;3.28;;;18.40;78.40;;;;;;4976440;28;20068;-88
2022/06/16 03:20:59;;;;;;;5.38;2.92;;;18.40;78.20;;;;;;4992040;28;20034;-87
2022/06/16 03:23:28;;;;;;;5.65;2.30;;;18.40;78.10;;;;;;4992457;28;20037;-87
2022/06/16 03:25:54;;;;;;;5.03;2.03;;;18.40;78.10;;;;;;4975861;28;20027;-86
2022/06/16 03:28:28;;;;;;;6.53;2.47;;;18.30;78.00;;;;;;4992333;28;20046;-88
2022/06/16 03:31:03;;;;;;;6.97;2.35;;;18.30;78.20;;;;;;4992081;28;20030;-87
2022/06/16 03:33:36;;;;;;;4.70;2.40;;;18.20;78.40;;;;;;4976919;28;20084;-87
2022/06/16 03:36:07;;;;;;;4.78;2.20;;;18.20;78.30;;;;;;4992148;28;20050;-87
2022/06/16 03:38:44;;;;;;;5.80;2.50;;;18.20;78.40;;;;;;4993344;28;20025;-87
2022/06/16 03:41:13;;;;;;;5.55;3.30;;;18.20;78.50;;;;;;4991854;28;20121;-87
2022/06/16 03:43:44;;;;;;;8.20;3.13;;;18.10;78.10;;;;;;4991951;28;20080;-87
2022/06/16 03:46:27;;;;;;;6.43;2.22;;;18.10;78.30;;;;;;4993063;28;20035;-86
2022/06/16 03:49:08;;;;;;;5.47;2.40;;;18.10;78.20;;;;;;4991653;28;20116;-87
2022/06/16 03:51:43;;;;;;;5.63;2.20;;;18.10;77.50;;;;;;4991771;28;20823;-87
2022/06/16 03:54:12;;;;;;;5.53;2.28;;;18.00;77.20;;;;;;4991641;28;20031;-87
2022/06/16 03:56:40;;;;;;;5.32;2.10;;;18.00;77.40;;;;;;4991452;28;20034;-87
2022/06/16 03:59:09;;;;;;;5.32;2.13;;;18.00;77.60;;;;;;4975796;28;20128;-87
2022/06/16 04:01:39;;;;;;;6.20;2.15;;;17.90;77.80;;;;;;4991380;28;20427;-87
2022/06/16 04:04:08;;;;;;;3.42;1.70;;;17.90;77.80;;;;;;4992079;28;20022;-87
2022/06/16 04:06:51;;;;;;;5.38;2.00;;;17.90;78.00;;;;;;4978823;28;20030;-88
2022/06/16 04:09:31;;;;;;;3.47;1.70;;;17.90;77.80;;;;;;4993312;28;20027;-87
2022/06/16 04:12:00;;;;;;;4.13;1.95;;;17.90;77.90;;;;;;4991478;28;20037;-87
2022/06/16 04:14:41;;;;;;;5.68;1.95;;;17.90;78.20;;;;;;4991609;28;20088;-88
2022/06/16 04:17:17;;;;;;;4.72;2.42;;;17.90;77.90;;;;;;4991328;28;20034;-87
2022/06/16 04:22:36;;;;;;;5.68;2.22;;;17.90;77.50;;;;;;4991359;28;20077;-87
2022/06/16 04:25:15;;;;;;;5.18;1.80;;;17.90;77.80;;;;;;4991506;28;20030;-87
2022/06/16 04:27:43;;;;;;;3.50;1.88;;;17.90;78.10;;;;;;4991140;28;20030;-88
2022/06/16 04:30:22;;;;;;;3.88;1.77;;;17.90;78.20;;;;;;4975223;28;20035;-87
2022/06/16 04:33:09;;;;;;;;;;;;;;;;;;;;;
2022/06/16 04:35:41;;;;;;;6.70;2.55;;;17.90;78.10;;;;;;4991028;28;20060;-88
2022/06/16 04:38:19;;;;;;;6.00;2.30;;;17.90;78.00;;;;;;4974996;28;20109;-87
2022/06/16 04:40:49;;;;;;;5.10;1.90;;;17.90;77.80;;;;;;4990730;28;20039;-87
2022/06/16 04:43:20;;;;;;;6.30;1.92;;;17.90;77.80;;;;;;4991039;28;20422;-87
2022/06/16 04:45:58;;;;;;;3.78;1.88;;;17.90;77.90;;;;;;4991117;28;20081;-87
2022/06/16 04:48:43;;;;;;;4.88;1.80;;;17.90;78.10;;;;;;4976111;28;20030;-87
2022/06/16 04:51:20;;;;;;;4.50;1.60;;;17.90;78.10;;;;;;4990823;28;20038;-87
2022/06/16 04:53:56;;;;;;;5.07;1.92;;;17.90;78.30;;;;;;4990919;28;20117;-87
2022/06/16 04:56:48;;;;;;;6.93;2.42;;;18.00;77.60;;;;;;4990971;28;20030;-87
2022/06/16 04:59:49;;;;;;;7.25;2.00;;;18.00;77.10;;;;;;4991911;28;20417;-87
2022/06/16 05:02:47;;;;;;;;;;;17.90;77.50;;;;;;4979203;28;20556;-87
2022/06/16 05:05:28;;;;;;;5.57;2.00;;;17.90;78.20;;;;;;4990728;28;19910;-87
2022/06/16 05:08:18;;;;;;;4.40;2.17;;;17.90;77.70;;;;;;4990567;28;20511;-87
2022/06/16 05:10:58;;;;;;;4.47;2.17;;;17.90;77.50;;;;;;4975632;28;20117;-87
2022/06/16 05:13:50;;;;;;;3.28;1.75;;;17.90;77.90;;;;;;4976170;28;20026;-88
2022/06/16 05:16:28;;;;;;;3.92;2.05;;;17.90;78.00;;;;;;4975804;28;20037;-87
2022/06/16 05:19:10;;;;;;;4.82;1.92;;;17.90;78.20;;;;;;4978151;28;20037;-87
2022/06/16 05:21:47;;;;;;;6.03;2.22;;;17.90;78.60;;;;;;4992148;28;20124;-87
2022/06/16 05:24:19;;;;;;;3.95;1.85;;;17.90;78.70;;;;;;4992266;28;20090;-87
2022/06/16 05:27:21;;;;;;;4.32;1.95;;;17.90;79.40;;;;;;4991931;28;20023;-87
2022/06/16 05:30:01;;;;;;;7.60;2.58;;;17.90;79.20;;;;;;4992642;28;20036;-87
2022/06/16 05:32:47;;;;;;;5.75;2.50;;;17.90;79.70;;;;;;4995558;28;20037;-86
2022/06/16 05:35:41;;;;;;;5.18;2.28;;;17.90;79.10;;;;;;4990809;28;20510;-87
2022/06/16 05:38:20;;;;;;;4.78;2.08;;;18.00;79.30;;;;;;4995624;28;20126;-87
2022/06/16 05:41:13;;;;;;;4.50;1.90;;;18.00;79.50;;;;;;4994914;28;20049;-87
2022/06/16 05:44:00;;;;;;;7.05;2.30;;;18.00;79.50;;;;;;4995786;28;20602;-87
2022/06/16 05:46:37;;;;;;;5.00;2.05;;;18.00;79.20;;;;;;4995034;28;20030;-87
2022/06/16 05:49:10;;;;;;;6.15;2.15;;;18.10;79.20;;;;;;4994982;28;20034;-87
2022/06/16 05:51:41;;;;;;;7.00;2.13;;;18.10;79.30;;;;;;4979600;28;20070;-87
2022/06/16 05:54:20;;;;;;;4.90;2.15;;;18.10;79.30;;;;;;4995588;28;20030;-88
2022/06/16 05:56:51;;;;;;;5.40;2.30;;;18.10;79.30;;;;;;4996059;28;20030;-87
2022/06/16 05:59:17;;;;;;;8.30;4.13;;;18.00;78.90;;;;;;4978662;28;20030;-87
2022/06/16 06:01:53;;;;;;;6.15;3.30;;;18.10;79.30;;;;;;4995541;28;20030;-87
2022/06/16 06:04:18;;;;;;;5.57;2.45;;;18.10;79.70;;;;;;4997388;28;20368;-86
2022/06/16 06:06:53;;;;;;;5.65;2.53;;;18.10;80.30;;;;;;4995327;28;20054;-87
2022/06/16 06:17:48;;;;;;;6.03;2.30;;;18.20;79.60;;;;;;4993398;28;20125;-87
2022/06/16 06:20:26;;;;;;;5.55;2.70;;;18.20;79.30;;;;;;4993340;28;20034;-87
2022/06/16 06:22:52;;;;;;;6.13;2.67;;;18.20;79.00;;;;;;4993483;28;20026;-87
2022/06/16 06:25:36;;;;;;;5.03;2.17;;;18.20;78.90;;;;;;4993783;28;20490;-88
2022/06/16 06:28:06;;;;;;;7.18;2.67;;;18.20;79.30;;;;;;4993378;28;20041;-87
2022/06/16 06:30:35;;;;;;;4.25;2.20;;;18.30;79.00;;;;;;4992923;28;20022;-88
2022/06/16 06:33:04;;;;;;;6.05;2.72;;;18.30;79.20;;;;;;4993262;28;20177;-87
2022/06/16 06:35:31;;;;;;;4.55;2.50;;;18.30;78.90;;;;;;4993015;28;20069;-87
2022/06/16 06:38:07;;;;;;;6.00;2.35;;;18.40;78.80;;;;;;4993409;28;20036;-88
2022/06/16 06:40:42;;;;;;;5.40;2.47;;;18.40;79.00;;;;;;4976985;28;20038;-88
2022/06/16 06:43:22;;;;;;;5.05;1.98;;;18.40;79.00;;;;;;4993929;28;20026;-88
2022/06/16 06:45:56;;;;;;;4.88;1.90;;;18.50;79.10;;;;;;4993112;28;20038;-89
2022/06/16 06:48:27;;;;;;;6.28;2.08;;;18.50;78.60;;;;;;4993334;28;20034;-88
2022/06/16 06:53:22;;;;;;;3.97;1.70;;;18.60;77.30;;;;;;4933644;29;20052;-86
2022/06/16 06:55:48;;;;;;;5.10;1.98;;;18.60;77.40;;;;;;4936246;29;20032;-86
2022/06/16 06:58:20;;;;;;;4.85;2.40;;;18.60;77.10;;;;;;4936224;29;20119;-87
2022/06/16 07:00:46;;;;;;;5.00;2.20;;;18.70;77.00;;;;;;4934732;29;20035;-87
2022/06/16 07:03:12;;;;;;;3.70;2.00;;;18.70;77.10;;;;;;4934837;29;20043;-86
2022/06/16 07:05:38;;;;;;;4.53;1.80;;;18.70;77.10;;;;;;4935614;29;20040;-87
2022/06/16 07:08:06;;;;;;;3.35;1.80;;;18.70;76.50;;;;;;4934736;29;20035;-87
2022/06/16 07:10:32;;;;;;;4.90;1.77;;;18.70;76.20;;;;;;4935877;29;20067;-87
2022/06/16 07:12:57;;;;;;;5.28;2.00;;;18.70;76.30;;;;;;4935774;29;20072;-87
2022/06/16 07:15:23;;;;;;;6.10;1.98;;;18.70;77.10;;;;;;4934620;29;20437;-87
2022/06/16 07:17:50;;;;;;;6.03;2.05;;;18.80;76.80;;;;;;4935705;29;20031;-86
2022/06/16 07:20:16;;;;;;;4.45;1.83;;;18.80;77.00;;;;;;4934204;29;20040;-87
2022/06/16 07:22:44;;;;;;;5.70;2.22;;;18.80;77.10;;;;;;4935685;29;20039;-86
2022/06/16 07:25:10;;;;;;;7.70;2.67;;;18.80;76.70;;;;;;4935842;29;20032;-86
2022/06/16 07:27:36;;;;;;;7.10;3.47;;;18.80;77.10;;;;;;4935771;29;20035;-87
2022/06/16 07:30:13;;;;;;;6.13;3.10;;;18.90;77.90;;;;;;4935689;29;20039;-86
2022/06/16 07:32:40;;;;;;;5.60;2.75;;;18.90;78.20;;;;;;4934479;29;20032;-87
2022/06/16 07:35:06;;;;;;;5.32;2.25;;;18.90;78.20;;;;;;4934451;29;20039;-87
2022/06/16 07:37:32;;;;;;;5.35;2.40;;;18.90;78.00;;;;;;4934215;29;20035;-87
2022/06/16 07:40:01;;;;;;;5.95;2.25;;;19.00;78.20;;;;;;4934280;29;20035;-88
2022/06/16 07:42:27;;;;;;;6.00;2.22;;;18.90;78.20;;;;;;4935448;29;20072;-87
2022/06/16 07:44:53;;;;;;;6.15;2.00;;;19.00;78.00;;;;;;4934195;29;20118;-87
2022/06/16 07:47:20;;;;;;;7.10;2.28;;;19.00;77.50;;;;;;4935727;29;20039;-88
2022/06/16 07:49:50;;;;;;;5.90;2.20;;;19.10;77.60;;;;;;4934097;29;20162;-88
2022/06/16 07:52:16;;;;;;;4.18;2.00;;;19.10;77.20;;;;;;4918118;29;20058;-88
2022/06/16 07:54:43;;;;;;;4.00;1.73;;;19.10;77.00;;;;;;4934519;29;20107;-88
2022/06/16 07:57:10;;;;;;;6.28;2.10;;;19.10;77.00;;;;;;4935245;29;20087;-88
2022/06/16 07:59:36;;;;;;;4.70;2.38;;;19.10;77.60;;;;;;4935485;29;20054;-88
2022/06/16 08:02:03;;;;;;;6.72;2.70;;;19.20;77.60;;;;;;4934033;29;20507;-88
2022/06/16 08:04:29;;;;;;;7.00;3.00;;;19.20;76.20;;;;;;4934026;29;20485;-88
2022/06/16 08:07:00;;;;;;;4.60;1.70;;;19.20;75.50;;;;;;4934688;29;20364;-88
2022/06/16 08:09:38;;;;;;;3.22;1.48;;;19.30;74.00;;;;;;4934812;29;20066;-88
2022/06/16 08:12:07;;;;;;;4.13;1.67;;;19.30;74.20;;;;;;4933618;29;20047;-88
2022/06/16 08:14:37;;;;;;;3.63;1.48;;;19.30;73.90;;;;;;4933647;29;20046;-88
2022/06/16 08:17:12;;;;;;;4.40;1.30;;;19.30;73.50;;;;;;4934636;29;20062;-88
2022/06/16 08:19:39;;;;;;;5.70;1.75;;;19.30;71.60;;;;;;4933334;29;20051;-87
2022/06/16 08:22:05;;;;;;;3.28;1.38;;;19.30;71.70;;;;;;4934918;29;20035;-88
2022/06/16 08:24:31;;;;;;;3.17;1.40;;;19.40;71.60;;;;;;4935062;29;20484;-88
2022/06/16 08:26:59;;;;;;;3.97;1.35;;;19.40;70.40;;;;;;4917552;29;20054;-87
2022/06/16 08:29:25;;;;;;;3.70;1.40;;;19.50;70.00;;;;;;4934679;29;20035;-88
2022/06/16 08:31:51;;;;;;;4.68;1.83;;;19.50;70.20;;;;;;4935280;29;20042;-87
2022/06/16 08:34:17;;;;;;;2.90;1.05;;;19.50;70.30;;;;;;4934527;29;20028;-87
2022/06/16 08:36:43;;;;;;;3.15;1.20;;;19.50;71.50;;;;;;4933281;29;20087;-88
2022/06/16 08:39:12;;;;;;;3.10;1.30;;;19.60;72.10;;;;;;4935865;29;20035;-87
2022/06/16 08:41:45;;;;;;;3.47;1.13;;;19.60;70.60;;;;;;4934617;29;20042;-87
2022/06/16 08:44:27;;;;;;;3.75;1.48;;;19.60;70.10;;;;;;4935086;29;20162;-88
2022/06/16 08:47:04;;;;;;;4.00;1.48;;;19.70;70.30;;;;;;4934029;29;20388;-86
2022/06/16 08:49:35;;;;;;;5.80;1.30;;;19.70;70.10;;;;;;4933911;29;20059;-86
2022/06/16 08:52:28;;;;;;;3.78;1.45;;;19.70;69.90;;;;;;4932824;29;20543;-86
2022/06/16 08:55:10;;;;;;;3.15;1.33;;;19.70;70.50;;;;;;4934063;29;20042;-86
2022/06/16 08:57:58;;;;;;;3.50;1.00;;;19.70;71.30;;;;;;4933980;29;20067;-86
2022/06/16 09:00:38;;;;;;;;;;;19.80;71.00;;;;;;4933990;29;20118;-86
2022/06/16 09:03:26;;;;;;;2.75;1.25;;;19.80;70.40;;;;;;4934175;29;19966;-86
2022/06/16 09:05:57;;;;;;;2.20;0.90;;;19.90;70.10;;;;;;4933361;29;20038;-86
2022/06/16 09:08:43;;;;;;;4.18;1.20;;;19.90;70.40;;;;;;4933960;29;20504;-86
2022/06/16 09:11:34;;;;;;;3.08;1.20;;;19.90;70.70;;;;;;4933991;29;20058;-86
2022/06/16 09:15:10;;;;;;;4.53;1.20;;;19.90;70.50;;;;;;4933999;29;20106;-87
2022/06/16 09:17:43;;;;;;;3.33;1.05;;;20.00;71.00;;;;;;4933535;29;20114;-87
2022/06/16 09:20:16;;;;;;;2.15;0.82;;;20.00;69.20;;;;;;4909835;29;20139;-87
2022/06/16 09:22:58;;;;;;;3.03;1.00;;;20.00;68.40;;;;;;4932574;29;20122;-87
2022/06/16 09:25:27;;;;;;;2.53;1.00;;;20.10;68.20;;;;;;4933702;29;20046;-87
2022/06/16 09:28:19;;;;;;;2.80;0.90;;;20.00;68.60;;;;;;4932635;29;20103;-87
2022/06/16 09:30:49;;;;;;;2.53;0.90;;;20.00;68.90;;;;;;4933420;29;20543;-87
2022/06/16 09:33:23;;;;;;;4.22;1.00;;;20.10;68.50;;;;;;4933743;29;20039;-87
2022/06/16 09:35:56;;;;;;;2.58;1.00;;;20.10;68.60;;;;;;4933532;29;20402;-86
2022/06/16 09:38:25;;;;;;;4.15;0.90;;;20.10;68.20;;;;;;4933718;29;20031;-87
2022/06/16 09:41:05;;;;;;;1.88;0.82;;;20.20;67.70;;;;;;4933492;29;20058;-87
2022/06/16 09:43:46;;;;;;;4.72;1.20;;;20.30;67.50;;;;;;4933719;29;20507;-87
2022/06/16 09:46:18;;;;;;;3.63;1.33;;;20.30;66.50;;;;;;4933397;29;20028;-87
2022/06/16 09:48:54;;;;;;;4.38;1.23;;;20.30;66.80;;;;;;4933465;29;20073;-87
2022/06/16 09:51:50;;;;;;;2.45;1.13;;;20.30;67.50;;;;;;4933470;29;20028;-87
2022/06/16 09:54:22;;;;;;;3.42;1.25;;;20.30;66.80;;;;;;4933561;29;20036;-87
2022/06/16 09:57:10;;;;;;;3.83;1.17;;;20.40;67.00;;;;;;4932174;29;20046;-87
2022/06/16 09:59:45;;;;;;;2.65;1.27;;;20.40;67.30;;;;;;4933379;29;20122;-87
2022/06/16 10:02:19;;;;;;;4.60;1.63;;;20.40;67.50;;;;;;4933305;29;20055;-87
2022/06/16 10:04:48;;;;;;;4.43;1.42;;;20.50;68.20;;;;;;4933830;29;20059;-87
2022/06/16 10:07:47;;;;;;;3.42;1.20;;;20.50;68.10;;;;;;4933627;29;20032;-87
2022/06/16 10:10:23;;;;;;;4.93;1.50;;;20.50;68.10;;;;;;4948390;29;20071;-87
2022/06/16 10:13:13;;;;;;;3.65;1.00;;;20.50;68.30;;;;;;4933576;29;20119;-87
2022/06/16 10:15:53;;;;;;;3.05;1.33;;;20.50;68.50;;;;;;4931938;29;20031;-87
2022/06/16 10:18:20;;;;;;;3.00;1.10;;;20.60;68.80;;;;;;4936324;29;20031;-87
2022/06/16 10:20:46;;;;;;;3.25;1.50;;;20.60;68.10;;;;;;4936877;29;20035;-87
2022/06/16 10:23:24;;;;;;;3.45;1.25;;;20.60;68.60;;;;;;4936868;29;20030;-87
2022/06/16 10:26:04;;;;;;;4.32;1.50;;;20.70;68.30;;;;;;4936663;29;20481;-87
2022/06/16 10:28:45;;;;;;;3.92;1.90;;;20.70;68.40;;;;;;4936775;29;20036;-87
2022/06/16 10:31:17;;;;;;;2.55;1.25;;;20.70;68.90;;;;;;4935310;29;20043;-87
2022/06/16 10:33:56;;;;;;;2.55;1.50;;;20.70;69.10;;;;;;4935555;29;20067;-88
2022/06/16 10:36:25;;;;;;;5.45;1.20;;;20.70;69.10;;;;;;4936385;29;20147;-87
2022/06/16 10:39:20;;;;;;;1.92;1.00;;;20.80;68.00;;;;;;4936369;29;20039;-87
2022/06/16 10:41:54;;;;;;;4.15;1.75;;;20.80;69.30;;;;;;4935274;29;20620;-87
2022/06/16 10:44:24;;;;;;;4.03;2.05;;;20.90;68.90;;;;;;4935151;29;20062;-87
2022/06/16 10:46:59;;;;;;;3.88;1.83;;;21.00;68.30;;;;;;4936131;29;20035;-87
2022/06/16 10:49:35;;;;;;;3.65;1.33;;;21.00;68.70;;;;;;4936386;29;20023;-87
2022/06/16 10:52:07;;;;;;;7.45;1.80;;;21.00;68.90;;;;;;4934837;29;20146;-87
2022/06/16 10:54:38;;;;;;;2.65;1.50;;;21.10;69.00;;;;;;4951015;29;20032;-88
2022/06/16 10:57:15;;;;;;;3.70;1.58;;;21.00;69.50;;;;;;4934626;29;20035;-88
2022/06/16 10:59:47;;;;;;;4.20;1.60;;;21.00;69.80;;;;;;4935774;29;20114;-88
2022/06/16 11:02:29;;;;;;;3.13;1.70;;;21.00;70.20;;;;;;4936012;29;20094;-87
2022/06/16 11:04:58;;;;;;;5.05;1.60;;;21.00;70.70;;;;;;4935937;29;20027;-87
2022/06/16 11:07:26;;;;;;;2.45;1.55;;;21.10;70.10;;;;;;4934422;29;20182;-88
2022/06/16 11:10:01;;;;;;;5.22;2.30;;;21.10;69.90;;;;;;4950326;29;20123;-88
2022/06/16 11:12:27;;;;;;;3.55;1.80;;;21.10;69.40;;;;;;4918721;29;20478;-87
2022/06/16 11:15:08;;;;;;;3.25;1.45;;;21.10;69.50;;;;;;4934749;29;20031;-87
2022/06/16 11:17:40;;;;;;;4.20;1.58;;;21.10;70.10;;;;;;4935509;29;20031;-88
2022/06/16 11:20:10;;;;;;;4.45;1.77;;;21.10;69.90;;;;;;4935343;29;20485;-87
2022/06/16 11:22:41;;;;;;;2.47;1.30;;;21.10;69.80;;;;;;4935428;29;20477;-87
2022/06/16 11:25:30;;;;;;;2.45;1.23;;;21.20;69.60;;;;;;4935652;29;20036;-88
2022/06/16 11:28:02;;;;;;;3.78;2.00;;;21.30;69.40;;;;;;4917945;29;20087;-87
2022/06/16 11:30:31;;;;;;;3.97;2.03;;;21.30;69.40;;;;;;4933911;29;20110;-87
2022/06/16 11:34:06;;;;;;;2.90;1.52;;;21.30;69.40;;;;;;4935682;29;20107;-87
2022/06/16 11:36:18;;;;;;;3.85;1.60;;;21.40;69.50;;;;;;4935089;29;20122;-87
2022/06/16 11:38:52;;;;;;;3.45;1.98;;;21.40;68.70;;;;;;4933766;29;20433;-87
2022/06/16 11:41:20;;;;;;;3.97;1.92;;;21.40;69.10;;;;;;4934062;29;20036;-87
2022/06/16 11:44:00;;;;;;;3.67;1.75;;;21.40;69.40;;;;;;4933768;29;20032;-87
2022/06/16 11:46:51;;;;;;;3.63;1.63;;;21.40;69.70;;;;;;4933722;29;20619;-87
2022/06/16 11:49:23;;;;;;;3.67;1.80;;;21.40;70.10;;;;;;4934782;29;20468;-87
2022/06/16 11:52:25;;;;;;;4.80;1.75;;;21.50;69.50;;;;;;4933551;29;20492;-87
2022/06/16 11:55:25;;;;;;;4.78;1.50;;;21.50;69.20;;;;;;4933898;29;20028;-87
2022/06/16 11:58:14;;;;;;;4.57;1.58;;;21.60;69.60;;;;;;4934751;29;20032;-87
2022/06/16 12:00:53;;;;;;;3.75;1.30;;;21.60;69.60;;;;;;4926750;29;20512;-87
2022/06/16 12:03:28;;;;;;;3.95;1.40;;;21.60;69.50;;;;;;4934825;29;20038;-87
2022/06/16 12:06:14;;;;;;;4.22;1.70;;;21.70;69.20;;;;;;4934619;29;20028;-87
2022/06/16 12:08:39;;;;;;;2.83;1.50;;;21.80;69.90;;;;;;4917590;29;20027;-88
2022/06/16 12:11:33;;;;;;;2.03;1.35;;;21.90;68.80;;;;;;4934578;29;20361;-87
2022/06/16 12:14:14;;;;;;;3.25;1.63;;;22.00;69.00;;;;;;4933177;29;20035;-87
2022/06/16 12:16:56;;;;;;;3.50;1.73;;;22.00;69.40;;;;;;4934691;29;20031;-87
2022/06/16 12:19:54;;;;;;;3.63;1.80;;;22.10;68.60;;;;;;4934329;29;20445;-87
2022/06/16 12:22:32;;;;;;;3.45;1.30;;;22.20;68.30;;;;;;4934340;29;20031;-87
2022/06/16 12:25:23;;;;;;;2.58;1.65;;;22.40;67.70;;;;;;4933525;29;20035;-87
2022/06/16 12:28:36;;;;;;;4.63;1.60;;;22.40;68.20;;;;;;4934253;29;20043;-87
2022/06/16 12:31:05;;;;;;;6.88;3.47;;;22.60;67.30;;;;;;4908330;29;20126;-88
2022/06/16 12:33:42;;;;;;;3.75;1.90;;;22.80;67.30;;;;;;4934215;29;20024;-87
2022/06/16 12:36:13;;;;;;;3.13;1.43;;;23.00;66.50;;;;;;4934212;29;20036;-87
2022/06/16 12:38:45;;;;;;;4.82;1.70;;;23.10;66.00;;;;;;4934029;29;20086;-87
2022/06/16 12:41:34;;;;;;;5.55;1.90;;;23.30;65.20;;;;;;4932407;29;20032;-87
2022/06/16 12:44:38;;;;;;;3.05;1.50;;;23.50;64.90;;;;;;4934194;29;20032;-86
2022/06/16 12:47:07;;;;;;;6.10;1.48;;;23.70;64.70;;;;;;4901929;29;20110;-86
2022/06/16 12:49:56;;;;;;;3.33;1.40;;;23.70;63.40;;;;;;4934179;29;20465;-87
2022/06/16 12:52:49;;;;;;;3.80;1.60;;;23.90;64.10;;;;;;5003669;23;20050;-87
2022/06/16 12:55:49;;;;;;;;;;;;;;;;;;;;;
2022/06/16 12:59:01;;;;;;;5.63;2.28;;;24.00;65.00;;;;;;4973009;28;20030;-89
2022/06/16 13:01:42;;;;;;;;;;;;;;;;;;;;;
2022/06/16 13:04:32;;;;;;;3.35;1.30;;;23.90;64.70;;;;;;4973449;28;20636;-87
2022/06/16 13:07:20;;;;;;;;;;;;;;;;;;;;;
2022/06/16 13:09:46;;;;;;;3.88;1.73;;;23.80;65.00;;;;;;4973001;28;20031;-88
2022/06/16 13:12:29;;;;;;;2.90;1.50;;;23.70;65.10;;;;;;4971961;28;20118;-88
2022/06/16 13:15:10;;;;;;;3.60;1.90;;;23.60;65.60;;;;;;4970918;28;20048;-87
2022/06/16 13:17:52;;;;;;;5.18;1.70;;;23.60;64.90;;;;;;4955451;28;20062;-87
2022/06/16 13:20:26;;;;;;;4.05;1.60;;;23.50;65.70;;;;;;4972507;28;20026;-87
2022/06/16 13:23:16;;;;;;;3.17;1.70;;;23.40;65.00;;;;;;4971184;28;20031;-87
2022/06/16 13:25:46;;;;;;;3.63;1.67;;;23.30;65.90;;;;;;4971016;28;20027;-88
2022/06/16 13:28:34;;;;;;;3.08;1.77;;;23.20;66.40;;;;;;4972563;28;20034;-87
2022/06/16 13:31:28;;;;;;;4.05;1.90;;;23.10;66.60;;;;;;4972347;28;20102;-87
2022/06/16 13:33:56;;;;;;;4.95;1.70;;;23.10;66.70;;;;;;4972150;28;20038;-87
2022/06/16 13:36:31;;;;;;;3.95;1.70;;;23.10;66.20;;;;;;4970901;28;20161;-86
2022/06/16 13:38:57;;;;;;;4.22;2.00;;;23.10;67.10;;;;;;4972131;28;20023;-87
2022/06/16 13:41:39;;;;;;;4.63;1.50;;;23.10;65.50;;;;;;4972082;28;20474;-87
2022/06/16 13:44:09;;;;;;;6.80;2.20;;;23.00;66.20;;;;;;4970928;28;20035;-87
2022/06/16 13:47:20;;;;;;;3.70;1.70;;;23.10;67.10;;;;;;4971990;28;20787;-87
2022/06/16 13:49:45;;;;;;;2.55;1.48;;;23.30;66.60;;;;;;4970821;28;20019;-87
2022/06/16 13:52:17;;;;;;;3.22;1.52;;;23.40;66.00;;;;;;4973813;28;20045;-87
2022/06/16 13:54:44;;;;;;;4.22;1.75;;;23.60;65.90;;;;;;4958487;28;20368;-86
2022/06/16 13:57:37;;;;;;;3.20;1.70;;;23.70;65.30;;;;;;4974599;28;20031;-87
2022/06/16 14:00:11;;;;;;;5.43;1.70;;;23.80;64.70;;;;;;4974496;28;20403;-87
2022/06/16 14:03:02;;;;;;;3.83;1.52;;;23.90;64.20;;;;;;4974322;28;20034;-88
2022/06/16 14:05:31;;;;;;;3.35;1.63;;;24.10;64.10;;;;;;4974718;28;20031;-87
2022/06/16 14:08:14;;;;;;;2.85;1.40;;;24.20;63.50;;;;;;4957943;28;20026;-88
2022/06/16 14:10:58;;;;;;;5.63;2.10;;;24.40;63.20;;;;;;4975333;28;20034;-87
2022/06/16 14:13:49;;;;;;;3.13;1.50;;;24.50;63.00;;;;;;4975742;28;20413;-88
2022/06/16 14:16:15;;;;;;;2.75;1.42;;;24.80;63.00;;;;;;4975379;28;20038;-87
2022/06/16 14:19:28;;;;;;;5.22;1.88;;;25.30;62.20;;;;;;4957780;28;20034;-88